createdAt,value
2019-03-10T00:00:12.313Z,14.23
2019-03-10T00:02:40.701Z,11.08
2019-03-10T00:05:09.172Z,9.00
2019-03-10T00:07:37.577Z,10.88
2019-03-10T00:10:09.419Z,11.10
2019-03-10T00:12:37.800Z,10.50
2019-03-10T00:15:12.706Z,10.60
2019-03-10T00:17:41.092Z,11.15
2019-03-10T00:20:11.129Z,14.78
2019-03-10T00:22:41.207Z,17.73
2019-03-10T00:25:10.427Z,10.13
2019-03-10T00:27:38.808Z,9.73
2019-03-10T00:30:10.252Z,12.53
2019-03-10T00:32:38.915Z,11.80
2019-03-10T00:35:07.423Z,13.62
2019-03-10T00:37:35.800Z,9.23
2019-03-10T00:40:07.272Z,11.78
2019-03-10T00:42:58.619Z,10.78
2019-03-10T00:45:52.248Z,8.58
2019-03-10T00:48:35.566Z,8.33
2019-03-10T00:51:09.953Z,8.83
2019-03-10T00:53:38.339Z,10.78
2019-03-10T00:56:06.751Z,8.95
2019-03-10T00:58:35.120Z,10.50
2019-03-10T01:01:03.507Z,11.15
2019-03-10T01:03:31.954Z,10.53
2019-03-10T01:06:00.343Z,13.13
2019-03-10T01:08:28.803Z,11.73
2019-03-10T01:10:57.199Z,11.08
2019-03-10T01:13:25.921Z,10.00
2019-03-10T01:15:55.160Z,6.70
2019-03-10T01:18:24.280Z,5.40
2019-03-10T01:20:53.681Z,8.73
2019-03-10T01:23:22.060Z,7.22
2019-03-10T01:25:50.456Z,6.83
2019-03-10T01:28:18.832Z,8.08
2019-03-10T01:30:50.309Z,5.78
2019-03-10T01:33:27.173Z,11.38
2019-03-10T01:35:55.572Z,5.90
2019-03-10T01:38:23.956Z,9.28
2019-03-10T01:40:52.340Z,7.75
2019-03-10T01:43:20.732Z,7.75
2019-03-10T01:45:49.115Z,8.08
2019-03-10T01:48:17.520Z,5.72
2019-03-10T01:50:45.895Z,5.10
2019-03-10T01:53:14.355Z,5.97
2019-03-10T01:55:42.747Z,10.60
2019-03-10T01:58:11.137Z,7.85
2019-03-10T02:00:39.593Z,10.08
2019-03-10T02:03:07.996Z,8.35
2019-03-10T02:05:36.146Z,9.33
2019-03-10T02:08:04.537Z,5.15
2019-03-10T02:10:32.916Z,8.30
2019-03-10T02:13:01.320Z,5.50
2019-03-10T02:15:29.703Z,6.58
2019-03-10T02:17:58.106Z,3.52
2019-03-10T02:20:26.476Z,6.65
2019-03-10T02:22:54.872Z,4.47
2019-03-10T02:25:23.252Z,10.50
2019-03-10T02:27:51.657Z,6.15
2019-03-10T02:30:20.113Z,7.17
2019-03-10T02:32:48.513Z,6.10
2019-03-10T02:35:17.170Z,6.37
2019-03-10T02:37:45.965Z,6.95
2019-03-10T02:40:14.486Z,6.97
2019-03-10T02:42:42.872Z,8.10
2019-03-10T02:45:11.480Z,6.95
2019-03-10T02:47:39.871Z,7.15
2019-03-10T02:50:10.181Z,7.17
2019-03-10T02:52:38.577Z,6.97
2019-03-10T02:55:08.497Z,6.97
2019-03-10T02:57:36.892Z,7.70
2019-03-10T03:00:13.204Z,6.47
2019-03-10T03:02:41.585Z,9.63
2019-03-10T03:05:10.603Z,4.47
2019-03-10T03:07:38.998Z,7.45
2019-03-10T03:10:10.283Z,5.37
2019-03-10T03:12:38.676Z,4.72
2019-03-10T03:15:09.115Z,6.00
2019-03-10T03:17:37.514Z,5.58
2019-03-10T03:20:09.491Z,7.03
2019-03-10T03:22:37.893Z,4.15
2019-03-10T03:25:08.812Z,10.25
2019-03-10T03:27:37.196Z,3.98
2019-03-10T03:30:08.898Z,6.65
2019-03-10T03:32:37.273Z,3.65
2019-03-10T03:35:25.145Z,6.60
2019-03-10T03:37:53.557Z,6.12
2019-03-10T03:40:22.265Z,7.15
2019-03-10T03:42:50.645Z,3.20
2019-03-10T03:45:19.041Z,6.45
2019-03-10T03:47:47.418Z,5.20
2019-03-10T03:50:15.820Z,5.92
2019-03-10T03:52:44.194Z,4.47
2019-03-10T03:55:12.598Z,5.67
2019-03-10T03:57:40.969Z,3.75
2019-03-10T04:00:11.815Z,4.72
2019-03-10T04:02:40.205Z,2.17
2019-03-10T04:05:10.134Z,5.28
2019-03-10T04:07:38.507Z,6.53
2019-03-10T04:10:08.714Z,5.33
2019-03-10T04:12:37.097Z,2.27
2019-03-10T04:15:06.365Z,3.12
2019-03-10T04:17:34.756Z,4.85
2019-03-10T04:20:03.818Z,2.30
2019-03-10T04:22:32.510Z,2.90
2019-03-10T04:25:00.900Z,1.67
2019-03-10T04:27:29.288Z,3.30
2019-03-10T04:29:57.676Z,3.37
2019-03-10T04:32:26.065Z,4.70
2019-03-10T04:34:54.462Z,2.58
2019-03-10T04:37:22.856Z,2.02
2019-03-10T04:39:51.236Z,2.87
2019-03-10T04:42:19.614Z,2.87
2019-03-10T04:44:48.004Z,1.77
2019-03-10T04:47:16.396Z,1.70
2019-03-10T04:49:44.798Z,2.35
2019-03-10T04:52:13.181Z,2.52
2019-03-10T04:54:45.924Z,1.50
2019-03-10T04:57:15.943Z,2.70
2019-03-10T04:59:44.667Z,1.15
2019-03-10T05:02:13.043Z,2.22
2019-03-10T05:04:41.439Z,2.60
2019-03-10T05:07:09.824Z,0.82
2019-03-10T05:09:38.212Z,1.50
2019-03-10T05:12:06.595Z,1.00
2019-03-10T05:14:34.975Z,1.67
2019-03-10T05:17:03.373Z,2.10
2019-03-10T05:19:31.756Z,1.77
2019-03-10T05:22:00.145Z,2.27
2019-03-10T05:24:28.529Z,2.20
2019-03-10T05:26:56.922Z,1.47
2019-03-10T05:29:25.290Z,1.75
2019-03-10T05:31:53.680Z,3.77
2019-03-10T05:34:22.051Z,2.80
2019-03-10T05:36:50.439Z,1.00
2019-03-10T05:39:18.822Z,1.85
2019-03-10T05:41:47.208Z,3.05
2019-03-10T05:44:15.593Z,0.57
2019-03-10T05:46:43.991Z,1.07
2019-03-10T05:49:12.431Z,1.32
2019-03-10T05:51:40.820Z,1.67
2019-03-10T05:54:09.206Z,1.92
2019-03-10T05:56:37.591Z,1.32
2019-03-10T05:59:05.970Z,1.10
2019-03-10T06:01:34.373Z,2.37
2019-03-10T06:04:02.750Z,3.70
2019-03-10T06:06:31.134Z,0.82
2019-03-10T06:08:59.506Z,2.33
2019-03-10T06:11:27.892Z,1.37
2019-03-10T06:13:56.278Z,2.05
2019-03-10T06:16:24.663Z,1.42
2019-03-10T06:18:53.059Z,1.90
2019-03-10T06:21:21.444Z,3.60
2019-03-10T06:23:49.836Z,3.27
2019-03-10T06:26:18.233Z,2.05
2019-03-10T06:28:46.609Z,1.65
2019-03-10T06:31:14.993Z,3.40
2019-03-10T06:33:43.367Z,1.57
2019-03-10T06:36:11.756Z,2.87
2019-03-10T06:38:40.139Z,3.77
2019-03-10T06:41:08.516Z,2.17
2019-03-10T06:43:36.913Z,3.17
2019-03-10T06:46:05.292Z,1.72
2019-03-10T06:48:33.675Z,1.90
2019-03-10T06:51:02.057Z,2.75
2019-03-10T06:53:30.452Z,2.40
2019-03-10T06:55:58.829Z,2.92
2019-03-10T06:58:27.223Z,2.42
2019-03-10T07:00:55.609Z,1.72
2019-03-10T07:03:23.977Z,3.15
2019-03-10T07:05:52.364Z,1.50
2019-03-10T07:08:20.744Z,1.72
2019-03-10T07:10:49.125Z,1.30
2019-03-10T07:13:17.509Z,1.50
2019-03-10T07:15:45.890Z,2.50
2019-03-10T07:18:14.276Z,0.60
2019-03-10T07:20:42.653Z,0.82
2019-03-10T07:23:12.681Z,0.60
2019-03-10T07:25:41.057Z,1.12
2019-03-10T07:28:17.065Z,0.78
2019-03-10T07:30:49.737Z,0.70
2019-03-10T07:33:22.733Z,1.32
2019-03-10T07:36:10.841Z,1.95
2019-03-10T07:38:47.141Z,1.30
2019-03-10T07:41:17.163Z,0.80
2019-03-10T07:43:53.212Z,0.60
2019-03-10T07:46:29.206Z,1.55
2019-03-10T07:49:05.490Z,0.68
2019-03-10T07:51:53.799Z,1.37
2019-03-10T07:54:26.590Z,1.35
2019-03-10T07:57:05.768Z,0.80
2019-03-10T07:59:52.059Z,0.62
2019-03-10T08:02:31.358Z,0.80
2019-03-10T08:05:01.406Z,0.80
2019-03-10T08:07:34.400Z,1.12
2019-03-10T08:10:07.443Z,0.55
2019-03-10T08:12:43.436Z,0.70
2019-03-10T08:15:13.532Z,0.70
2019-03-10T08:17:59.811Z,0.78
2019-03-10T08:20:35.796Z,0.95
2019-03-10T08:23:05.812Z,0.82
2019-03-10T08:25:41.700Z,0.88
2019-03-10T08:28:11.720Z,0.50
2019-03-10T08:30:41.760Z,1.30
2019-03-10T08:33:26.602Z,1.10
2019-03-10T08:35:56.692Z,2.00
2019-03-10T08:38:35.640Z,1.35
2019-03-10T08:41:05.679Z,1.30
2019-03-10T08:43:51.793Z,1.02
2019-03-10T08:46:28.127Z,3.00
2019-03-10T08:48:58.144Z,2.92
2019-03-10T08:51:44.412Z,3.17
2019-03-10T08:54:17.356Z,2.35
2019-03-10T08:56:47.380Z,1.75
2019-03-10T08:59:17.418Z,0.60
2019-03-10T09:01:50.420Z,0.60
2019-03-10T09:04:20.440Z,0.88
2019-03-10T09:07:02.553Z,0.90
2019-03-10T09:09:48.789Z,0.65
2019-03-10T09:12:18.822Z,0.82
2019-03-10T09:14:51.573Z,0.60
2019-03-10T09:17:21.600Z,0.50
2019-03-10T09:20:00.410Z,0.40
2019-03-10T09:22:42.299Z,0.82
2019-03-10T09:25:15.367Z,0.47
2019-03-10T09:27:54.489Z,0.50
2019-03-10T09:30:27.584Z,1.15
2019-03-10T09:33:03.442Z,2.52
2019-03-10T09:35:33.460Z,1.00
2019-03-10T09:38:06.148Z,0.60
2019-03-10T09:40:36.188Z,0.90
2019-03-10T09:43:22.052Z,0.50
2019-03-10T09:46:04.197Z,3.55
2019-03-10T09:48:36.869Z,0.40
2019-03-10T09:51:18.662Z,0.28
2019-03-10T09:53:51.449Z,0.70
2019-03-10T09:56:21.498Z,0.95
2019-03-10T09:59:00.225Z,0.53
2019-03-10T10:01:30.252Z,1.57
2019-03-10T10:04:12.147Z,0.90
2019-03-10T10:06:42.420Z,1.90
2019-03-10T10:09:27.340Z,0.68
2019-03-10T10:11:57.379Z,0.98
2019-03-10T10:14:33.084Z,1.57
2019-03-10T10:17:05.837Z,1.85
2019-03-10T10:19:41.695Z,0.95
2019-03-10T10:22:27.936Z,1.65
2019-03-10T10:24:57.951Z,2.22
2019-03-10T10:27:33.965Z,0.30
2019-03-10T10:30:06.673Z,1.92
2019-03-10T10:32:39.484Z,0.60
2019-03-10T10:35:23.269Z,2.62
2019-03-10T10:38:18.236Z,0.10
2019-03-10T10:40:46.004Z,0.20
2019-03-10T10:43:18.734Z,0.68
2019-03-10T10:46:03.613Z,0.10
2019-03-10T10:48:36.396Z,0.15
2019-03-10T10:51:06.529Z,1.42
2019-03-10T10:53:48.613Z,0.20
2019-03-10T10:56:34.462Z,0.20
2019-03-10T10:59:07.395Z,0.20
2019-03-10T11:01:45.936Z,0.20
2019-03-10T11:04:18.890Z,0.10
2019-03-10T11:06:48.977Z,0.25
2019-03-10T11:09:21.725Z,0.37
2019-03-10T11:12:09.621Z,0.78
2019-03-10T11:14:39.650Z,0.37
2019-03-10T11:17:25.590Z,1.55
2019-03-10T11:20:07.724Z,1.82
2019-03-10T11:22:53.961Z,2.83
2019-03-10T11:25:26.944Z,0.72
2019-03-10T11:27:56.972Z,0.42
2019-03-10T11:30:35.828Z,0.35
2019-03-10T11:33:05.934Z,0.55
2019-03-10T11:35:35.978Z,0.37
2019-03-10T11:38:14.731Z,0.25
2019-03-10T11:40:44.753Z,0.40
2019-03-10T11:43:22.703Z,0.20
2019-03-10T11:45:52.244Z,0.30
2019-03-10T11:48:31.205Z,0.20
2019-03-10T11:51:17.391Z,0.57
2019-03-10T11:53:59.449Z,2.70
2019-03-10T11:56:35.294Z,1.30
2019-03-10T11:59:08.289Z,1.00
2019-03-10T12:01:54.549Z,0.55
2019-03-10T12:04:41.134Z,0.65
2019-03-10T12:07:16.925Z,0.10
2019-03-10T12:09:45.337Z,2.02
2019-03-10T12:12:13.720Z,2.42
2019-03-10T12:14:42.124Z,1.90
2019-03-10T12:17:10.514Z,1.87
2019-03-10T12:19:38.906Z,0.82
2019-03-10T12:22:07.298Z,8.28
2019-03-10T12:24:35.713Z,1.12
2019-03-10T12:27:04.100Z,3.10
2019-03-10T12:29:32.494Z,0.70
2019-03-10T12:32:00.876Z,1.75
2019-03-10T12:34:29.265Z,2.87
2019-03-10T12:36:57.661Z,4.85
2019-03-10T12:39:26.062Z,6.45
2019-03-10T12:41:58.506Z,0.47
2019-03-10T12:44:24.567Z,1.30
2019-03-10T12:46:52.944Z,1.87
2019-03-10T12:49:21.336Z,1.95
2019-03-10T12:51:49.741Z,3.95
2019-03-10T12:54:18.157Z,1.37
2019-03-10T12:56:46.540Z,7.47
2019-03-10T12:59:16.478Z,4.75
2019-03-10T13:01:44.856Z,5.58
2019-03-10T13:04:13.263Z,2.95
2019-03-10T13:06:41.859Z,3.35
2019-03-10T13:09:10.625Z,1.70
2019-03-10T13:11:39.058Z,2.60
2019-03-10T13:14:07.485Z,6.55
2019-03-10T13:16:35.882Z,3.70
2019-03-10T13:19:04.298Z,4.30
2019-03-10T13:21:32.669Z,2.62
2019-03-10T13:24:01.120Z,4.55
2019-03-10T13:26:29.501Z,6.28
2019-03-10T13:28:57.904Z,7.40
2019-03-10T13:31:26.281Z,5.35
2019-03-10T13:33:54.678Z,6.25
2019-03-10T13:36:23.060Z,4.00
2019-03-10T13:38:51.449Z,5.75
2019-03-10T13:41:19.834Z,4.35
2019-03-10T13:43:48.212Z,4.33
2019-03-10T13:46:16.965Z,5.72
2019-03-10T13:48:45.355Z,8.15
2019-03-10T13:51:13.824Z,8.10
2019-03-10T13:53:42.242Z,4.37
2019-03-10T13:56:10.615Z,3.95
2019-03-10T13:58:38.997Z,6.37
2019-03-10T14:01:07.396Z,4.92
2019-03-10T14:03:35.917Z,6.17
2019-03-10T14:06:04.397Z,9.35
2019-03-10T14:08:32.779Z,13.20
2019-03-10T14:11:01.177Z,7.30
2019-03-10T14:13:29.567Z,7.12
2019-03-10T14:15:57.972Z,8.00
2019-03-10T14:18:26.339Z,6.70
2019-03-10T14:20:54.744Z,7.03
2019-03-10T14:23:23.188Z,13.35
2019-03-10T14:25:51.660Z,14.05
2019-03-10T14:28:22.136Z,7.83
2019-03-10T14:30:50.338Z,6.58
2019-03-10T14:33:18.799Z,9.65
2019-03-10T14:35:47.198Z,11.20
2019-03-10T14:38:15.577Z,10.15
2019-03-10T14:40:43.980Z,10.32
2019-03-10T14:43:12.367Z,19.57
2019-03-10T14:45:40.760Z,7.78
2019-03-10T14:48:09.152Z,10.30
2019-03-10T14:50:37.540Z,17.73
2019-03-10T14:53:05.998Z,11.70
2019-03-10T14:55:34.379Z,9.68
2019-03-10T14:58:02.765Z,8.93
2019-03-10T15:00:31.636Z,8.05
2019-03-10T15:03:00.043Z,8.48
2019-03-10T15:05:28.420Z,6.47
2019-03-10T15:07:57.092Z,7.75
2019-03-10T15:10:25.572Z,9.53
2019-03-10T15:12:53.952Z,7.12
2019-03-10T15:15:23.316Z,10.98
2019-03-10T15:17:51.890Z,12.10
2019-03-10T15:20:21.642Z,12.58
2019-03-10T15:22:50.419Z,12.23
2019-03-10T15:25:19.965Z,13.53
2019-03-10T15:27:48.442Z,23.70
2019-03-10T15:30:19.034Z,22.30
2019-03-10T15:35:15.164Z,8.95
2019-03-10T15:37:43.559Z,11.28
2019-03-10T15:40:15.030Z,13.30
2019-03-10T15:42:43.770Z,16.25
2019-03-10T15:45:14.261Z,10.63
2019-03-10T15:47:43.490Z,16.45
2019-03-10T15:50:26.563Z,21.80
2019-03-10T15:52:55.029Z,23.02
2019-03-10T15:55:23.421Z,13.70
2019-03-10T15:57:51.992Z,19.25
2019-03-10T16:00:23.445Z,9.35
2019-03-10T16:02:52.009Z,16.62
2019-03-10T16:05:20.388Z,11.05
2019-03-10T16:07:48.858Z,6.83
2019-03-10T16:10:17.326Z,11.78
2019-03-10T16:12:45.700Z,9.15
2019-03-10T16:15:27.524Z,11.65
2019-03-10T16:17:55.931Z,21.02
2019-03-10T16:20:24.310Z,11.97
2019-03-10T16:22:55.207Z,9.43
2019-03-10T16:25:22.868Z,5.75
2019-03-10T16:27:51.265Z,7.00
2019-03-10T16:30:21.648Z,9.00
2019-03-10T16:32:50.052Z,7.28
2019-03-10T16:35:18.413Z,6.22
2019-03-10T16:37:46.816Z,7.65
2019-03-10T16:40:16.262Z,8.25
2019-03-10T16:42:44.636Z,13.03
2019-03-10T16:45:19.005Z,7.72
2019-03-10T16:47:47.393Z,10.20
2019-03-10T16:50:18.080Z,7.97
2019-03-10T16:52:46.497Z,8.88
2019-03-10T16:55:14.912Z,9.70
2019-03-10T16:57:43.400Z,4.90
2019-03-10T17:00:12.919Z,5.60
2019-03-10T17:02:43.255Z,3.20
2019-03-10T17:05:22.050Z,5.62
2019-03-10T17:07:50.512Z,6.45
2019-03-10T17:10:21.116Z,5.78
2019-03-10T17:15:21.193Z,13.32
2019-03-10T17:17:49.657Z,6.60
2019-03-10T17:20:18.786Z,10.72
2019-03-10T17:22:47.350Z,12.43
2019-03-10T17:25:16.263Z,5.47
2019-03-10T17:27:44.996Z,10.13
2019-03-10T17:30:21.147Z,9.73
2019-03-10T17:32:49.821Z,13.05
2019-03-10T17:35:18.947Z,8.10
2019-03-10T17:37:48.693Z,9.53
2019-03-10T17:40:20.503Z,9.93
2019-03-10T17:42:48.957Z,7.03
2019-03-10T17:45:21.048Z,2.62
2019-03-10T17:47:49.442Z,2.87
2019-03-10T17:50:18.384Z,7.12
2019-03-10T17:52:47.029Z,6.03
2019-03-10T17:55:17.726Z,3.60
2019-03-10T17:57:46.104Z,3.40
2019-03-10T18:00:29.216Z,3.62
2019-03-10T18:02:57.610Z,4.03
2019-03-10T18:05:25.997Z,2.98
2019-03-10T18:07:54.383Z,3.87
2019-03-10T18:10:23.032Z,4.75
2019-03-10T18:12:51.418Z,2.90
2019-03-10T18:15:19.880Z,4.42
2019-03-10T18:17:48.255Z,6.83
2019-03-10T18:20:19.749Z,4.85
2019-03-10T18:22:48.196Z,2.72
2019-03-10T18:25:16.665Z,3.92
2019-03-10T18:27:45.118Z,5.47
2019-03-10T18:30:20.515Z,5.00
2019-03-10T18:32:49.063Z,5.67
2019-03-10T18:35:17.460Z,4.72
2019-03-10T18:37:46.175Z,6.17
2019-03-10T18:40:17.113Z,5.75
2019-03-10T18:42:45.496Z,6.30
2019-03-10T18:45:16.148Z,4.92
2019-03-10T18:50:14.679Z,4.85
2019-03-10T18:52:43.064Z,3.02
2019-03-10T18:55:13.000Z,6.00
2019-03-10T18:57:41.459Z,6.20
2019-03-10T19:00:21.600Z,4.85
2019-03-10T19:02:50.352Z,7.58
2019-03-10T19:05:18.732Z,3.42
2019-03-10T19:07:47.107Z,13.72
2019-03-10T19:10:15.572Z,7.65
2019-03-10T19:12:44.010Z,5.62
2019-03-10T19:15:29.049Z,6.92
2019-03-10T19:17:57.423Z,5.12
2019-03-10T19:20:25.804Z,7.15
2019-03-10T19:22:54.194Z,11.18
2019-03-10T19:25:22.636Z,8.20
2019-03-10T19:27:51.015Z,7.42
2019-03-10T19:30:23.006Z,6.37
2019-03-10T19:32:51.387Z,6.20
2019-03-10T19:35:19.841Z,10.45
2019-03-10T19:37:48.223Z,7.55
2019-03-10T19:40:23.457Z,7.97
2019-03-10T19:42:51.844Z,11.28
2019-03-10T19:45:21.276Z,5.97
2019-03-10T19:47:49.657Z,4.90
2019-03-10T19:50:20.380Z,9.10
2019-03-10T19:52:48.759Z,7.50
2019-03-10T19:55:17.152Z,5.22
2019-03-10T19:57:45.529Z,8.95
2019-03-10T20:00:20.570Z,7.65
2019-03-10T20:02:49.027Z,8.35
2019-03-10T20:05:17.475Z,9.30
2019-03-10T20:07:45.931Z,11.75
2019-03-10T20:10:16.527Z,13.78
2019-03-10T20:15:14.557Z,11.60
2019-03-10T20:17:42.940Z,5.87
2019-03-10T20:20:13.371Z,8.18
2019-03-10T20:22:41.742Z,7.67
2019-03-10T20:25:12.173Z,5.92
2019-03-10T20:27:40.544Z,6.80
2019-03-10T20:30:17.111Z,6.10
2019-03-10T20:32:45.489Z,8.28
2019-03-10T20:35:13.949Z,7.80
2019-03-10T20:37:42.319Z,6.40
2019-03-10T20:40:16.604Z,6.67
2019-03-10T20:42:44.971Z,4.95
2019-03-10T20:45:13.879Z,12.58
2019-03-10T20:47:43.036Z,13.62
2019-03-10T20:50:15.814Z,11.55
2019-03-10T20:52:44.227Z,7.47
2019-03-10T20:55:13.523Z,9.33
2019-03-10T20:57:41.916Z,11.08
2019-03-10T21:00:12.900Z,8.88
2019-03-10T21:02:41.289Z,10.15
2019-03-10T21:05:11.110Z,6.78
2019-03-10T21:07:39.502Z,7.58
2019-03-10T21:10:13.693Z,8.20
2019-03-10T21:12:42.896Z,16.07
2019-03-10T21:15:16.672Z,12.65
2019-03-10T21:17:45.063Z,8.53
2019-03-10T21:20:15.284Z,12.73
2019-03-10T21:22:43.747Z,8.90
2019-03-10T21:25:14.726Z,10.80
2019-03-10T21:27:43.189Z,13.72
2019-03-10T21:30:14.824Z,9.35
2019-03-10T21:32:43.233Z,10.10
2019-03-10T21:35:17.505Z,10.63
2019-03-10T21:37:41.721Z,6.87
2019-03-10T21:40:22.204Z,13.62
2019-03-10T21:42:50.676Z,8.13
2019-03-10T21:45:19.056Z,13.75
2019-03-10T21:47:47.444Z,13.10
2019-03-10T21:50:17.165Z,9.48
2019-03-10T21:52:45.693Z,10.85
2019-03-10T21:55:15.013Z,15.13
2019-03-10T21:57:43.395Z,9.50
2019-03-10T22:00:14.844Z,12.23
2019-03-10T22:02:43.230Z,6.95
2019-03-10T22:05:12.844Z,10.75
2019-03-10T22:07:41.233Z,8.60
2019-03-10T22:10:12.213Z,10.72
2019-03-10T22:12:40.675Z,12.82
2019-03-10T22:15:11.493Z,8.48
2019-03-10T22:17:39.957Z,7.70
2019-03-10T22:20:12.972Z,9.55
2019-03-10T22:22:48.474Z,13.25
2019-03-10T22:25:13.388Z,14.60
2019-03-10T22:27:41.950Z,11.68
2019-03-10T22:30:13.036Z,10.58
2019-03-10T22:32:41.428Z,10.08
2019-03-10T22:35:09.947Z,11.55
2019-03-10T22:37:38.336Z,10.00
2019-03-10T22:40:09.721Z,9.30
2019-03-10T22:42:38.108Z,8.30
2019-03-10T22:45:09.827Z,13.00
2019-03-10T22:47:38.211Z,11.35
2019-03-10T22:50:09.437Z,11.20
2019-03-10T22:52:37.815Z,11.10
2019-03-10T22:55:07.845Z,15.43
2019-03-10T22:57:36.227Z,6.92
2019-03-10T23:00:10.212Z,7.58
2019-03-10T23:02:38.606Z,11.48
2019-03-10T23:05:07.524Z,12.28
2019-03-10T23:07:35.908Z,14.95
2019-03-10T23:10:07.300Z,17.62
2019-03-10T23:12:35.693Z,11.10
2019-03-10T23:15:05.713Z,10.20
2019-03-10T23:17:34.095Z,8.68
2019-03-10T23:20:02.482Z,9.30
2019-03-10T23:22:30.864Z,11.20
2019-03-10T23:25:01.522Z,7.80
2019-03-10T23:27:29.343Z,6.87
2019-03-10T23:29:57.732Z,9.28
2019-03-10T23:32:26.108Z,11.22
2019-03-10T23:34:54.522Z,11.15
2019-03-10T23:37:22.885Z,7.80
2019-03-10T23:39:51.268Z,9.73
2019-03-10T23:42:19.650Z,14.40
2019-03-10T23:44:48.045Z,12.03
2019-03-10T23:47:16.429Z,11.43
2019-03-10T23:49:44.820Z,12.68
2019-03-10T23:52:13.205Z,13.90
2019-03-10T23:54:41.599Z,10.45
2019-03-10T23:57:09.968Z,15.83
2019-03-10T23:59:38.357Z,11.38
